This is the latest recevied weather packets stored in our database for station/object CA4LJZ-10. If no packets are shown the sender has not sent any weather packets the latest 10 day(s).
| Time | Temp. | Humidity | Pressure | Rain* | Wind** | Luminosity | Snow |
|---|---|---|---|---|---|---|---|
| 1777881664 | 18.33° C | 38% | 953.3 hPa | - | - | - | - |
| 1777880763 | 18.33° C | 39% | 953.5 hPa | - | - | - | - |
| 1777879862 | 18.33° C | 38% | 953.5 hPa | - | - | - | - |
| 1777878961 | 18.33° C | 38% | 953.6 hPa | - | - | - | - |
| 1777878061 | 18.33° C | 38% | 954 hPa | - | - | - | - |
| 1777877160 | 18.89° C | 38% | 954.2 hPa | - | - | - | - |
| 1777876259 | 18.89° C | 37% | 954 hPa | - | - | - | - |
| 1777875358 | 18.89° C | 37% | 954.2 hPa | - | - | - | - |
| 1777874457 | 18.89° C | 38% | 954.4 hPa | - | - | - | - |
| 1777873556 | 18.89° C | 37% | 954.4 hPa | - | - | - | - |
| 1777872655 | 19.44° C | 37% | 954.6 hPa | - | - | - | - |
| 1777871754 | 18.89° C | 37% | 954.9 hPa | - | - | - | - |
| 1777870918 | 18.89° C | 37% | 955.1 hPa | - | - | - | - |
| 1777870853 | 18.89° C | 37% | 955.1 hPa | - | - | - | - |
| 1777869953 | 19.44° C | 37% | 955.5 hPa | - | - | - | - |
| 1777869052 | 19.44° C | 36% | 955.2 hPa | - | - | - | - |
| 1777868151 | 19.44° C | 36% | 955.3 hPa | - | - | - | - |
| 1777867250 | 20° C | 36% | 955.4 hPa | - | - | - | - |
| 1777864547 | 20° C | 36% | 955.2 hPa | - | - | - | - |
| 1777846547 | 23.33° C | 22% | 954.6 hPa | - | - | - | - |
| 1777843845 | 25° C | 26% | 954.1 hPa | - | - | - | - |
| 1777842043 | 26.67° C | 24% | 954 hPa | - | - | - | - |
| 1777840241 | 27.78° C | 23% | 954.1 hPa | - | - | - | - |
| 1777839373 | 27.22° C | 25% | 954.1 hPa | - | - | - | - |
| 1777836674 | 28.33° C | 21% | 953.9 hPa | - | - | - | - |
* Rain since midnight (hover to see other rain measurements)
** Current wind speed in m/s (hover to see current wind gust speed)